createdAt,value
2017-12-01T00:02:09.429Z,37.87
2017-12-01T00:04:37.654Z,36.70
2017-12-01T00:07:06.650Z,36.03
2017-12-01T00:09:34.897Z,35.47
2017-12-01T00:12:03.142Z,34.97
2017-12-01T00:14:31.362Z,36.20
2017-12-01T00:17:00.346Z,35.20
2017-12-01T00:19:29.359Z,35.47
2017-12-01T00:21:58.348Z,36.23
2017-12-01T00:24:27.345Z,34.90
2017-12-01T00:26:56.313Z,55.57
2017-12-01T00:29:25.339Z,55.77
2017-12-01T00:31:53.577Z,60.87
2017-12-01T00:34:22.603Z,53.53
2017-12-01T00:36:50.837Z,58.70
2017-12-01T00:39:19.063Z,67.53
2017-12-01T00:41:47.300Z,50.13
2017-12-01T00:44:16.326Z,52.33
2017-12-01T00:46:44.557Z,54.17
2017-12-01T00:49:12.778Z,54.90
2017-12-01T00:51:41.023Z,50.27
2017-12-01T00:54:10.012Z,53.80
2017-12-01T00:56:38.255Z,56.43
2017-12-01T00:59:06.482Z,50.70
2017-12-01T01:01:34.726Z,55.33
2017-12-01T01:04:02.967Z,46.70
2017-12-01T01:06:32.032Z,32.83
2017-12-01T01:09:00.265Z,59.73
2017-12-01T01:11:28.498Z,59.60
2017-12-01T01:13:56.721Z,86.13
2017-12-01T01:16:25.746Z,57.80
2017-12-01T01:18:54.022Z,45.17
2017-12-01T01:21:22.244Z,55.47
2017-12-01T01:23:50.490Z,38.43
2017-12-01T01:26:18.707Z,38.00
2017-12-01T01:28:46.942Z,41.43
2017-12-01T01:31:15.214Z,39.20
2017-12-01T01:33:43.472Z,43.43
2017-12-01T01:36:11.694Z,31.40
2017-12-01T01:38:39.924Z,30.07
2017-12-01T01:41:08.143Z,64.10
2017-12-01T01:43:36.383Z,41.07
2017-12-01T01:46:04.602Z,34.10
2017-12-01T01:48:33.635Z,33.13
2017-12-01T01:51:01.861Z,28.47
2017-12-01T01:53:30.152Z,30.27
2017-12-01T01:55:59.179Z,35.97
2017-12-01T01:58:27.407Z,30.23
2017-12-01T02:00:55.658Z,33.30
2017-12-01T02:03:23.970Z,34.00
2017-12-01T02:05:52.978Z,54.40
2017-12-01T02:08:21.251Z,53.13
2017-12-01T02:10:50.255Z,40.50
2017-12-01T02:13:18.494Z,31.50
2017-12-01T02:15:46.738Z,29.30
2017-12-01T02:18:14.961Z,38.07
2017-12-01T02:20:43.230Z,32.83
2017-12-01T02:23:11.417Z,30.73
2017-12-01T02:25:40.529Z,29.40
2017-12-01T02:28:08.750Z,33.13
2017-12-01T02:30:36.971Z,37.87
2017-12-01T02:33:05.207Z,31.43
2017-12-01T02:35:33.453Z,29.53
2017-12-01T02:38:01.684Z,38.43
2017-12-01T02:40:30.693Z,38.23
2017-12-01T02:42:58.951Z,30.17
2017-12-01T02:45:27.947Z,32.10
2017-12-01T02:47:56.163Z,37.00
2017-12-01T02:50:24.805Z,49.13
2017-12-01T02:52:53.796Z,31.87
2017-12-01T02:55:22.796Z,51.10
2017-12-01T02:57:51.774Z,50.77
2017-12-01T03:00:20.037Z,28.63
2017-12-01T03:02:48.259Z,31.97
2017-12-01T03:05:16.514Z,44.47
2017-12-01T03:07:44.730Z,30.90
2017-12-01T03:10:13.790Z,59.03
2017-12-01T03:12:42.038Z,42.63
2017-12-01T03:15:10.295Z,44.53
2017-12-01T03:17:38.529Z,31.10
2017-12-01T03:20:06.760Z,31.20
2017-12-01T03:22:35.003Z,33.90
2017-12-01T03:25:03.922Z,46.83
2017-12-01T03:27:33.034Z,33.77
2017-12-01T03:30:01.226Z,30.23
2017-12-01T03:32:29.472Z,30.60
2017-12-01T03:34:57.714Z,31.20
2017-12-01T03:37:25.976Z,29.17
2017-12-01T03:39:54.211Z,28.90
2017-12-01T03:42:22.462Z,52.37
2017-12-01T03:44:50.694Z,44.20
2017-12-01T03:47:18.939Z,31.07
2017-12-01T03:49:47.189Z,40.30
2017-12-01T03:52:16.199Z,34.67
2017-12-01T03:54:44.462Z,29.13
2017-12-01T03:57:13.464Z,30.47
2017-12-01T03:59:41.712Z,49.03
2017-12-01T04:02:09.946Z,30.37
2017-12-01T04:04:38.192Z,33.90
2017-12-01T04:07:07.190Z,26.20
2017-12-01T04:09:35.422Z,42.57
2017-12-01T04:12:03.736Z,53.93
2017-12-01T04:14:31.936Z,32.97
2017-12-01T04:17:00.178Z,68.97
2017-12-01T04:19:29.184Z,67.63
2017-12-01T04:21:58.174Z,63.00
2017-12-01T04:24:26.406Z,53.50
2017-12-01T04:26:54.644Z,52.50
2017-12-01T04:29:22.919Z,39.33
2017-12-01T04:31:51.154Z,48.23
2017-12-01T04:34:19.376Z,44.00
2017-12-01T04:36:47.622Z,56.70
2017-12-01T04:39:16.198Z,44.73
2017-12-01T04:41:44.447Z,49.70
2017-12-01T04:44:13.451Z,47.47
2017-12-01T04:46:42.455Z,47.37
2017-12-01T04:49:11.478Z,42.67
2017-12-01T04:51:39.706Z,47.77
2017-12-01T04:54:07.984Z,48.27
2017-12-01T04:56:36.247Z,39.37
2017-12-01T04:59:05.274Z,54.37
2017-12-01T05:01:33.854Z,51.73
2017-12-01T05:04:02.118Z,46.53
2017-12-01T05:06:30.392Z,54.27
2017-12-01T05:08:58.605Z,47.67
2017-12-01T05:11:26.856Z,48.87
2017-12-01T05:13:55.115Z,46.30
2017-12-01T05:16:23.399Z,54.67
2017-12-01T05:18:51.648Z,56.60
2017-12-01T05:21:20.674Z,50.40
2017-12-01T05:23:48.910Z,45.33
2017-12-01T05:26:17.459Z,28.97
2017-12-01T05:28:45.730Z,48.87
2017-12-01T05:31:13.988Z,57.47
2017-12-01T05:33:42.258Z,55.67
2017-12-01T05:36:10.503Z,43.70
2017-12-01T05:38:39.545Z,37.30
2017-12-01T05:41:07.806Z,45.90
2017-12-01T05:43:36.051Z,43.80
2017-12-01T05:46:05.093Z,41.10
2017-12-01T05:48:33.382Z,40.00
2017-12-01T05:51:01.596Z,45.27
2017-12-01T05:53:30.618Z,38.63
2017-12-01T05:55:58.867Z,40.53
2017-12-01T05:58:27.122Z,50.33
2017-12-01T06:00:55.362Z,41.50
2017-12-01T06:03:23.731Z,46.07
2017-12-01T06:05:52.005Z,44.10
2017-12-01T06:08:20.273Z,41.87
2017-12-01T06:10:48.543Z,44.80
2017-12-01T06:13:16.835Z,42.20
2017-12-01T06:15:45.109Z,41.03
2017-12-01T06:18:13.335Z,30.23
2017-12-01T06:20:41.583Z,30.03
2017-12-01T06:23:09.840Z,30.53
2017-12-01T06:25:38.164Z,40.37
2017-12-01T06:28:06.407Z,37.40
2017-12-01T06:30:34.666Z,39.20
2017-12-01T06:33:02.940Z,42.17
2017-12-01T06:35:31.504Z,38.33
2017-12-01T06:37:59.783Z,42.63
2017-12-01T06:40:28.027Z,40.43
2017-12-01T06:42:56.308Z,41.40
2017-12-01T06:45:24.565Z,41.43
2017-12-01T06:47:53.589Z,46.60
2017-12-01T06:50:22.618Z,44.70
2017-12-01T06:52:51.166Z,45.83
2017-12-01T06:55:19.426Z,30.60
2017-12-01T06:57:48.438Z,48.37
2017-12-01T07:00:16.718Z,38.97
2017-12-01T07:02:44.976Z,56.83
2017-12-01T07:05:13.563Z,37.07
2017-12-01T07:07:42.661Z,54.40
2017-12-01T07:10:10.928Z,49.83
2017-12-01T07:12:39.207Z,53.67
2017-12-01T07:15:08.275Z,44.83
2017-12-01T07:17:36.540Z,49.10
2017-12-01T07:20:04.790Z,30.47
2017-12-01T07:22:33.342Z,40.03
2017-12-01T07:25:01.981Z,55.33
2017-12-01T07:27:30.213Z,56.87
2017-12-01T07:29:58.462Z,54.10
2017-12-01T07:32:27.782Z,55.17
2017-12-01T07:34:56.027Z,51.73
2017-12-01T07:37:25.047Z,30.43
2017-12-01T07:39:53.298Z,47.80
2017-12-01T07:42:21.561Z,48.23
2017-12-01T07:44:51.380Z,47.93
2017-12-01T07:47:19.619Z,53.33
2017-12-01T07:49:47.883Z,48.03
2017-12-01T07:55:13.273Z,50.60
2017-12-01T07:57:41.526Z,50.93
2017-12-01T08:00:10.563Z,39.30
2017-12-01T08:02:38.802Z,46.03
2017-12-01T08:08:06.210Z,49.03
2017-12-01T08:10:34.485Z,40.27
2017-12-01T08:13:02.722Z,46.10
2017-12-01T08:15:30.960Z,54.50
2017-12-01T08:18:11.054Z,42.47
2017-12-01T08:20:40.125Z,35.10
2017-12-01T08:23:08.331Z,64.20
2017-12-01T08:25:36.586Z,41.13
2017-12-01T08:28:04.842Z,44.13
2017-12-01T08:30:33.074Z,42.27
2017-12-01T08:33:02.084Z,38.50
2017-12-01T08:35:30.331Z,44.23
2017-12-01T08:37:59.338Z,37.07
2017-12-01T08:40:27.583Z,41.07
2017-12-01T08:42:55.832Z,44.90
2017-12-01T08:45:24.055Z,44.17
2017-12-01T08:47:53.038Z,38.90
2017-12-01T08:50:22.069Z,48.60
2017-12-01T08:52:50.279Z,50.50
2017-12-01T08:55:18.523Z,52.37
2017-12-01T08:57:46.766Z,61.07
2017-12-01T09:00:15.013Z,52.73
2017-12-01T09:02:43.246Z,63.37
2017-12-01T09:05:11.495Z,60.83
2017-12-01T09:07:39.739Z,55.30
2017-12-01T09:10:08.810Z,59.27
2017-12-01T09:12:37.062Z,43.30
2017-12-01T09:15:05.301Z,48.57
2017-12-01T09:17:33.578Z,44.63
2017-12-01T09:20:01.853Z,29.10
2017-12-01T09:22:30.857Z,31.77
2017-12-01T09:24:59.527Z,46.13
2017-12-01T09:27:27.795Z,45.80
2017-12-01T09:29:56.085Z,51.23
2017-12-01T09:32:24.316Z,58.73
2017-12-01T09:34:52.551Z,46.73
2017-12-01T09:37:21.003Z,47.57
2017-12-01T09:39:49.226Z,38.43
2017-12-01T09:42:17.677Z,48.50
2017-12-01T09:44:45.950Z,41.97
2017-12-01T09:47:14.177Z,36.33
2017-12-01T09:49:42.442Z,44.20
2017-12-01T09:52:10.674Z,37.47
2017-12-01T09:54:38.892Z,26.73
2017-12-01T09:57:07.359Z,45.43
2017-12-01T09:59:36.334Z,56.40
2017-12-01T10:02:04.563Z,43.67
2017-12-01T10:04:32.805Z,49.37
2017-12-01T10:07:01.033Z,54.17
2017-12-01T10:09:30.343Z,48.13
2017-12-01T10:11:58.582Z,56.43
2017-12-01T10:14:26.820Z,53.97
2017-12-01T10:16:55.060Z,43.63
2017-12-01T10:19:23.755Z,46.17
2017-12-01T10:21:52.016Z,59.03
2017-12-01T10:24:20.240Z,55.00
2017-12-01T10:26:48.491Z,57.70
2017-12-01T10:29:16.714Z,53.10
2017-12-01T10:31:45.474Z,52.20
2017-12-01T10:34:13.694Z,47.10
2017-12-01T10:36:43.068Z,54.90
2017-12-01T10:39:11.264Z,62.10
2017-12-01T10:41:40.283Z,51.83
2017-12-01T10:44:08.524Z,60.93
2017-12-01T10:46:37.574Z,53.80
2017-12-01T10:49:05.838Z,63.57
2017-12-01T10:51:34.113Z,57.80
2017-12-01T10:54:02.877Z,68.80
2017-12-01T10:56:31.892Z,86.30
2017-12-01T10:59:00.132Z,73.50
2017-12-01T11:01:28.388Z,80.77
2017-12-01T11:03:56.621Z,68.50
2017-12-01T11:06:24.894Z,61.10
2017-12-01T11:08:53.128Z,51.57
2017-12-01T11:11:22.165Z,70.67
2017-12-01T11:16:53.209Z,64.63
2017-12-01T11:19:21.453Z,62.93
2017-12-01T11:21:49.669Z,65.70
2017-12-01T11:24:18.448Z,69.60
2017-12-01T11:26:46.647Z,71.37
2017-12-01T11:29:14.910Z,66.70
2017-12-01T11:31:43.134Z,67.23
2017-12-01T11:34:11.859Z,59.10
2017-12-01T11:36:40.083Z,60.73
2017-12-01T11:39:08.411Z,60.50
2017-12-01T11:41:37.771Z,63.37
2017-12-01T11:44:06.009Z,60.20
2017-12-01T11:46:34.258Z,66.53
2017-12-01T11:49:02.498Z,64.40
2017-12-01T11:51:30.842Z,36.33
2017-12-01T11:53:59.084Z,44.47
2017-12-01T11:56:27.372Z,28.80
2017-12-01T11:58:55.578Z,54.47
2017-12-01T12:01:23.827Z,51.30
2017-12-01T12:03:52.062Z,60.23
2017-12-01T12:06:20.273Z,55.57
2017-12-01T12:08:48.548Z,43.77
2017-12-01T12:11:17.514Z,50.53
2017-12-01T12:13:45.774Z,59.60
2017-12-01T12:16:14.036Z,39.70
2017-12-01T12:18:42.315Z,31.13
2017-12-01T12:21:10.597Z,31.10
2017-12-01T12:23:38.826Z,32.87
2017-12-01T12:26:07.282Z,73.63
2017-12-01T12:28:36.286Z,39.30
2017-12-01T12:31:05.510Z,50.90
2017-12-01T12:33:33.754Z,34.30
2017-12-01T12:36:02.008Z,36.33
2017-12-01T12:38:31.003Z,31.93
2017-12-01T12:41:00.008Z,49.37
2017-12-01T12:43:28.234Z,52.57
2017-12-01T12:45:56.471Z,46.10
2017-12-01T12:48:25.623Z,38.80
2017-12-01T12:50:53.862Z,41.13
2017-12-01T12:53:22.117Z,46.37
2017-12-01T12:55:50.386Z,48.50
2017-12-01T12:58:19.371Z,45.80
2017-12-01T13:00:48.488Z,50.77
2017-12-01T13:03:16.747Z,52.60
2017-12-01T13:05:44.994Z,53.40
2017-12-01T13:08:13.238Z,46.10
2017-12-01T13:10:41.537Z,58.30
2017-12-01T13:13:09.787Z,55.70
2017-12-01T13:15:38.006Z,56.13
2017-12-01T13:18:07.010Z,58.33
2017-12-01T13:20:35.254Z,63.30
2017-12-01T13:23:04.289Z,63.40
2017-12-01T13:25:32.745Z,65.60
2017-12-01T13:28:02.051Z,57.90
2017-12-01T13:30:31.059Z,54.77
2017-12-01T13:32:59.337Z,50.97
2017-12-01T13:35:27.683Z,53.53
2017-12-01T13:37:56.057Z,46.80
2017-12-01T13:40:24.319Z,50.87
2017-12-01T13:42:52.563Z,51.43
2017-12-01T13:45:21.590Z,47.43
2017-12-01T13:47:49.878Z,46.17
2017-12-01T13:50:18.170Z,52.33
2017-12-01T13:52:46.378Z,45.80
2017-12-01T13:55:14.658Z,40.63
2017-12-01T13:57:42.922Z,42.47
2017-12-01T14:00:11.890Z,46.90
2017-12-01T14:02:40.156Z,44.40
2017-12-01T14:05:08.373Z,46.50
2017-12-01T14:07:36.918Z,47.90
2017-12-01T14:10:05.937Z,49.23
2017-12-01T14:12:34.956Z,51.50
2017-12-01T14:15:03.253Z,50.47
2017-12-01T14:17:31.548Z,55.10
2017-12-01T14:19:59.986Z,49.33
2017-12-01T14:22:28.277Z,59.17
2017-12-01T14:24:56.504Z,50.53
2017-12-01T14:27:24.753Z,43.27
2017-12-01T14:29:53.778Z,49.67
2017-12-01T14:32:22.032Z,50.57
2017-12-01T14:34:51.046Z,47.30
2017-12-01T14:37:19.270Z,53.37
2017-12-01T14:39:47.539Z,46.63
2017-12-01T14:42:15.811Z,47.13
2017-12-01T14:44:44.025Z,61.50
2017-12-01T14:47:13.026Z,58.50
2017-12-01T14:49:41.673Z,45.43
2017-12-01T14:52:10.675Z,47.00
2017-12-01T14:54:39.174Z,44.37
2017-12-01T14:57:07.426Z,45.93
2017-12-01T14:59:36.038Z,49.50
2017-12-01T15:02:05.127Z,45.77
2017-12-01T15:04:33.422Z,53.40
2017-12-01T15:07:01.746Z,52.83
2017-12-01T15:09:31.109Z,47.00
2017-12-01T15:11:59.578Z,47.00
2017-12-01T15:14:27.771Z,53.60
2017-12-01T15:16:56.002Z,58.97
2017-12-01T15:19:24.496Z,59.60
2017-12-01T15:21:53.481Z,47.70
2017-12-01T15:24:22.902Z,42.87
2017-12-01T15:26:51.432Z,51.07
2017-12-01T15:29:19.703Z,51.83
2017-12-01T15:31:49.446Z,42.03
2017-12-01T15:34:18.693Z,42.00
2017-12-01T15:36:47.133Z,41.67
2017-12-01T15:39:16.478Z,47.17
2017-12-01T15:41:44.790Z,50.23
2017-12-01T15:44:13.014Z,46.50
2017-12-01T15:46:41.260Z,41.77
2017-12-01T15:49:09.575Z,41.03
2017-12-01T15:51:37.914Z,44.70
2017-12-01T15:54:07.176Z,44.50
2017-12-01T15:56:35.423Z,46.17
2017-12-01T15:59:04.624Z,47.87
2017-12-01T16:01:33.963Z,43.50
2017-12-01T16:04:02.222Z,46.63
2017-12-01T16:06:30.487Z,54.13
2017-12-01T16:08:58.883Z,49.13
2017-12-01T16:11:27.235Z,49.63
2017-12-01T16:13:55.572Z,53.20
2017-12-01T16:16:24.369Z,52.17
2017-12-01T16:18:52.606Z,56.53
2017-12-01T16:21:20.846Z,57.23
2017-12-01T16:23:49.166Z,50.23
2017-12-01T16:26:17.432Z,59.73
2017-12-01T16:28:45.699Z,54.10
2017-12-01T16:31:13.974Z,52.50
2017-12-01T16:33:42.234Z,52.87
2017-12-01T16:36:11.302Z,69.30
2017-12-01T16:38:39.522Z,29.80
2017-12-01T16:41:08.527Z,55.07
2017-12-01T16:43:37.296Z,50.50
2017-12-01T16:46:05.583Z,56.27
2017-12-01T16:48:33.926Z,50.87
2017-12-01T16:51:02.159Z,59.90
2017-12-01T16:53:31.319Z,52.80
2017-12-01T16:55:59.563Z,53.67
2017-12-01T16:58:27.820Z,56.83
2017-12-01T17:00:56.106Z,52.50
2017-12-01T17:03:24.334Z,55.20
2017-12-01T17:05:52.608Z,54.90
2017-12-01T17:08:20.826Z,57.93
2017-12-01T17:10:49.116Z,62.70
2017-12-01T17:13:17.375Z,53.30
2017-12-01T17:15:45.627Z,52.30
2017-12-01T17:18:13.891Z,56.40
2017-12-01T17:20:42.176Z,59.00
2017-12-01T17:23:11.191Z,54.17
2017-12-01T17:25:39.462Z,52.40
2017-12-01T17:28:07.797Z,55.03
2017-12-01T17:30:37.446Z,62.50
2017-12-01T17:33:07.372Z,54.37
2017-12-01T17:35:35.635Z,53.27
2017-12-01T17:38:03.922Z,52.60
2017-12-01T17:40:32.168Z,51.47
2017-12-01T17:43:00.392Z,59.10
2017-12-01T17:45:28.649Z,56.23
2017-12-01T17:47:56.883Z,58.77
2017-12-01T17:50:25.089Z,52.97
2017-12-01T17:52:54.103Z,55.17
2017-12-01T17:55:22.326Z,57.77
2017-12-01T17:57:50.560Z,63.70
2017-12-01T18:00:18.785Z,56.63
2017-12-01T18:02:47.790Z,51.67
2017-12-01T18:05:16.779Z,49.40
2017-12-01T18:07:45.020Z,53.67
2017-12-01T18:10:13.303Z,50.27
2017-12-01T18:12:41.568Z,46.30
2017-12-01T18:15:09.798Z,60.50
2017-12-01T18:17:39.850Z,52.07
2017-12-01T18:20:08.103Z,47.73
2017-12-01T18:22:36.374Z,55.10
2017-12-01T18:25:04.649Z,58.23
2017-12-01T18:27:32.923Z,52.53
2017-12-01T18:30:01.216Z,55.50
2017-12-01T18:32:29.478Z,48.63
2017-12-01T18:34:57.737Z,50.97
2017-12-01T18:37:25.954Z,52.13
2017-12-01T18:45:50.755Z,50.20
2017-12-01T18:48:18.992Z,55.17
2017-12-01T18:50:47.245Z,52.90
2017-12-01T18:53:15.492Z,59.03
2017-12-01T18:55:43.734Z,51.03
2017-12-01T18:58:12.043Z,48.20
2017-12-01T19:00:40.270Z,51.90
2017-12-01T19:03:09.270Z,51.27
2017-12-01T19:05:38.283Z,60.40
2017-12-01T19:08:06.522Z,54.10
2017-12-01T19:10:34.833Z,55.57
2017-12-01T19:13:03.292Z,56.23
2017-12-01T19:15:31.589Z,53.87
2017-12-01T19:17:59.843Z,53.80
2017-12-01T19:20:28.221Z,61.37
2017-12-01T19:22:56.658Z,59.53
2017-12-01T19:25:26.003Z,59.20
2017-12-01T19:27:56.252Z,56.03
2017-12-01T19:30:24.651Z,60.30
2017-12-01T19:32:53.128Z,58.53
2017-12-01T19:35:21.614Z,68.27
2017-12-01T19:37:50.061Z,68.13
2017-12-01T19:40:19.121Z,63.13
2017-12-01T19:42:47.724Z,65.70
2017-12-01T19:45:16.250Z,60.17
2017-12-01T19:47:44.895Z,60.90
2017-12-01T19:50:13.283Z,71.80
2017-12-01T19:52:41.707Z,80.33
2017-12-01T19:55:10.118Z,81.30
2017-12-01T19:57:38.656Z,81.80
2017-12-01T20:00:07.820Z,74.00
2017-12-01T20:02:37.035Z,67.20
2017-12-01T20:05:05.291Z,62.40
2017-12-01T20:07:33.947Z,68.53
2017-12-01T20:10:03.996Z,69.17
2017-12-01T20:12:34.311Z,65.70
2017-12-01T20:15:02.768Z,60.43
2017-12-01T20:17:31.259Z,62.50
2017-12-01T20:20:00.651Z,57.17
2017-12-01T20:25:26.347Z,63.13
2017-12-01T20:27:54.687Z,65.97
2017-12-01T20:30:23.259Z,64.33
2017-12-01T20:32:51.705Z,79.67
2017-12-01T20:35:20.124Z,67.73
2017-12-01T20:37:48.590Z,67.57
2017-12-01T20:40:17.412Z,67.00
2017-12-01T20:42:45.886Z,62.30
2017-12-01T20:45:14.136Z,67.50
2017-12-01T20:47:42.442Z,61.87
2017-12-01T20:50:10.794Z,55.97
2017-12-01T20:52:40.052Z,63.27
2017-12-01T20:55:08.572Z,57.93
2017-12-01T20:57:37.001Z,61.83
2017-12-01T21:00:05.451Z,61.40
2017-12-01T21:02:33.849Z,67.00
2017-12-01T21:05:02.415Z,67.47
2017-12-01T21:07:31.218Z,67.50
2017-12-01T21:09:59.869Z,61.00
2017-12-01T21:12:28.166Z,61.77
2017-12-01T21:14:56.491Z,70.30
2017-12-01T21:17:24.768Z,64.10
2017-12-01T21:19:53.113Z,58.93
2017-12-01T21:22:21.346Z,68.27
2017-12-01T21:24:50.384Z,64.13
2017-12-01T21:27:18.606Z,69.03
2017-12-01T21:29:47.606Z,67.10
2017-12-01T21:32:15.875Z,62.20
2017-12-01T21:34:44.149Z,67.17
2017-12-01T21:37:13.147Z,67.97
2017-12-01T21:39:41.415Z,60.07
2017-12-01T21:42:10.436Z,60.60
2017-12-01T21:44:39.542Z,58.73
2017-12-01T21:47:07.818Z,62.07
2017-12-01T21:49:36.062Z,71.03
2017-12-01T21:52:04.315Z,68.70
2017-12-01T21:54:33.346Z,70.23
2017-12-01T21:57:02.023Z,72.90
2017-12-01T21:59:30.343Z,64.90
2017-12-01T22:01:58.578Z,76.07
2017-12-01T22:04:27.562Z,66.33
2017-12-01T22:06:56.599Z,61.57
2017-12-01T22:09:24.877Z,55.47
2017-12-01T22:11:53.185Z,65.70
2017-12-01T22:14:21.416Z,69.33
2017-12-01T22:16:49.665Z,56.80
2017-12-01T22:19:17.974Z,76.23
2017-12-01T22:21:46.238Z,74.30
2017-12-01T22:24:14.678Z,63.10
2017-12-01T22:26:42.878Z,57.20
2017-12-01T22:29:12.263Z,59.70
2017-12-01T22:31:42.483Z,59.37
2017-12-01T22:34:10.724Z,70.57
2017-12-01T22:36:38.958Z,68.73
2017-12-01T22:39:07.269Z,61.07
2017-12-01T22:41:35.505Z,58.03
2017-12-01T22:44:03.734Z,51.97
2017-12-01T22:46:32.867Z,64.83
2017-12-01T22:49:01.139Z,62.50
2017-12-01T22:51:29.505Z,60.77
2017-12-01T22:53:57.716Z,56.67
2017-12-01T22:56:26.099Z,56.80
2017-12-01T22:58:54.351Z,54.07
2017-12-01T23:01:22.597Z,58.40
2017-12-01T23:03:50.893Z,51.10
2017-12-01T23:06:19.883Z,51.90
2017-12-01T23:08:48.903Z,50.97
2017-12-01T23:11:17.165Z,52.23
2017-12-01T23:13:45.515Z,55.57
2017-12-01T23:16:14.526Z,58.47
2017-12-01T23:18:42.810Z,52.00
2017-12-01T23:21:11.091Z,54.70
2017-12-01T23:23:39.346Z,57.47
2017-12-01T23:26:09.101Z,66.30
2017-12-01T23:28:37.357Z,70.17
2017-12-01T23:31:05.640Z,64.17
2017-12-01T23:33:33.862Z,60.47
2017-12-01T23:36:02.194Z,55.10
2017-12-01T23:38:30.453Z,53.00
2017-12-01T23:40:58.722Z,58.53
2017-12-01T23:43:26.973Z,57.20
2017-12-01T23:45:55.982Z,57.63
2017-12-01T23:48:24.292Z,56.83
2017-12-01T23:50:52.546Z,54.60
2017-12-01T23:53:20.777Z,61.90
2017-12-01T23:55:49.779Z,53.53
2017-12-01T23:58:18.791Z,50.17
